sensor_id;sensor_type;location;lat;lon;timestamp;temperature;humidity
17815;DHT22;9031;50.974;11.330;2022-08-21T00:02:23;18.90;99.90
17815;DHT22;9031;50.974;11.330;2022-08-21T00:04:50;18.90;99.90
17815;DHT22;9031;50.974;11.330;2022-08-21T00:07:17;18.70;99.90
17815;DHT22;9031;50.974;11.330;2022-08-21T00:09:43;18.60;99.90
17815;DHT22;9031;50.974;11.330;2022-08-21T00:12:09;18.70;99.90
17815;DHT22;9031;50.974;11.330;2022-08-21T00:14:34;18.70;99.90
17815;DHT22;9031;50.974;11.330;2022-08-21T00:17:00;18.80;99.90
17815;DHT22;9031;50.974;11.330;2022-08-21T00:19:26;18.80;99.90
17815;DHT22;9031;50.974;11.330;2022-08-21T00:21:53;18.80;99.90
17815;DHT22;9031;50.974;11.330;2022-08-21T00:24:19;18.80;99.90
17815;DHT22;9031;50.974;11.330;2022-08-21T00:26:46;18.80;99.90
17815;DHT22;9031;50.974;11.330;2022-08-21T00:29:12;18.80;99.90
17815;DHT22;9031;50.974;11.330;2022-08-21T00:31:38;18.70;99.90
17815;DHT22;9031;50.974;11.330;2022-08-21T00:34:04;18.70;99.90
17815;DHT22;9031;50.974;11.330;2022-08-21T00:36:30;18.60;99.90
17815;DHT22;9031;50.974;11.330;2022-08-21T00:38:56;18.60;99.90
17815;DHT22;9031;50.974;11.330;2022-08-21T00:41:22;18.60;99.90
17815;DHT22;9031;50.974;11.330;2022-08-21T00:43:49;18.60;99.90
17815;DHT22;9031;50.974;11.330;2022-08-21T00:46:15;18.60;99.90
17815;DHT22;9031;50.974;11.330;2022-08-21T00:48:40;18.60;99.90
17815;DHT22;9031;50.974;11.330;2022-08-21T00:51:19;18.60;99.90
17815;DHT22;9031;50.974;11.330;2022-08-21T00:53:50;18.50;99.90
17815;DHT22;9031;50.974;11.330;2022-08-21T00:56:19;18.40;99.90
17815;DHT22;9031;50.974;11.330;2022-08-21T00:58:46;18.40;99.90
17815;DHT22;9031;50.974;11.330;2022-08-21T01:01:13;18.30;99.90
17815;DHT22;9031;50.974;11.330;2022-08-21T01:03:38;18.40;99.90
17815;DHT22;9031;50.974;11.330;2022-08-21T01:06:05;18.30;99.90
17815;DHT22;9031;50.974;11.330;2022-08-21T01:08:31;18.20;99.90
17815;DHT22;9031;50.974;11.330;2022-08-21T01:10:58;18.10;99.90
17815;DHT22;9031;50.974;11.330;2022-08-21T01:13:26;18.20;99.90
17815;DHT22;9031;50.974;11.330;2022-08-21T01:15:55;18.20;99.90
17815;DHT22;9031;50.974;11.330;2022-08-21T01:18:22;18.20;99.90
17815;DHT22;9031;50.974;11.330;2022-08-21T01:21:08;18.20;99.90
17815;DHT22;9031;50.974;11.330;2022-08-21T01:23:36;18.20;99.90
17815;DHT22;9031;50.974;11.330;2022-08-21T01:26:03;18.10;99.90
17815;DHT22;9031;50.974;11.330;2022-08-21T01:28:33;18.10;99.90
17815;DHT22;9031;50.974;11.330;2022-08-21T01:31:01;18.00;99.90
17815;DHT22;9031;50.974;11.330;2022-08-21T01:33:28;18.00;99.90
17815;DHT22;9031;50.974;11.330;2022-08-21T01:35:53;18.00;99.90
17815;DHT22;9031;50.974;11.330;2022-08-21T01:38:19;17.90;99.90
17815;DHT22;9031;50.974;11.330;2022-08-21T01:40:45;18.00;99.90
17815;DHT22;9031;50.974;11.330;2022-08-21T01:43:11;18.10;99.90
17815;DHT22;9031;50.974;11.330;2022-08-21T01:45:36;18.10;99.90
17815;DHT22;9031;50.974;11.330;2022-08-21T01:48:02;18.10;99.90
17815;DHT22;9031;50.974;11.330;2022-08-21T01:50:28;18.00;99.90
17815;DHT22;9031;50.974;11.330;2022-08-21T01:52:54;18.00;99.90
17815;DHT22;9031;50.974;11.330;2022-08-21T01:55:20;18.00;99.90
17815;DHT22;9031;50.974;11.330;2022-08-21T01:57:47;18.00;99.90
17815;DHT22;9031;50.974;11.330;2022-08-21T02:00:15;17.80;99.90
17815;DHT22;9031;50.974;11.330;2022-08-21T02:02:42;17.80;99.90
17815;DHT22;9031;50.974;11.330;2022-08-21T02:05:10;17.70;99.90
17815;DHT22;9031;50.974;11.330;2022-08-21T02:07:41;17.70;99.90
17815;DHT22;9031;50.974;11.330;2022-08-21T02:10:08;17.70;99.90
17815;DHT22;9031;50.974;11.330;2022-08-21T02:12:34;17.60;99.90
17815;DHT22;9031;50.974;11.330;2022-08-21T02:15:00;17.60;99.90
17815;DHT22;9031;50.974;11.330;2022-08-21T02:17:26;17.70;99.90
17815;DHT22;9031;50.974;11.330;2022-08-21T02:19:52;17.80;99.90
17815;DHT22;9031;50.974;11.330;2022-08-21T02:22:17;17.80;99.90
17815;DHT22;9031;50.974;11.330;2022-08-21T02:24:43;17.70;99.90
17815;DHT22;9031;50.974;11.330;2022-08-21T02:27:09;17.70;99.90
17815;DHT22;9031;50.974;11.330;2022-08-21T02:29:34;17.60;99.90
17815;DHT22;9031;50.974;11.330;2022-08-21T02:32:00;17.70;99.90
17815;DHT22;9031;50.974;11.330;2022-08-21T02:34:25;17.70;99.90
17815;DHT22;9031;50.974;11.330;2022-08-21T02:36:51;17.70;99.90
17815;DHT22;9031;50.974;11.330;2022-08-21T02:39:16;17.60;99.90
17815;DHT22;9031;50.974;11.330;2022-08-21T02:41:42;17.60;99.90
17815;DHT22;9031;50.974;11.330;2022-08-21T02:44:08;17.60;99.90
17815;DHT22;9031;50.974;11.330;2022-08-21T02:46:34;17.50;99.90
17815;DHT22;9031;50.974;11.330;2022-08-21T02:48:59;17.50;99.90
17815;DHT22;9031;50.974;11.330;2022-08-21T02:51:25;17.30;99.90
17815;DHT22;9031;50.974;11.330;2022-08-21T02:53:52;17.10;99.90
17815;DHT22;9031;50.974;11.330;2022-08-21T02:56:19;17.00;99.90
17815;DHT22;9031;50.974;11.330;2022-08-21T02:58:48;16.80;99.90
17815;DHT22;9031;50.974;11.330;2022-08-21T03:01:15;16.50;99.90
17815;DHT22;9031;50.974;11.330;2022-08-21T03:03:43;16.40;99.90
17815;DHT22;9031;50.974;11.330;2022-08-21T03:06:11;16.30;99.90
17815;DHT22;9031;50.974;11.330;2022-08-21T03:08:38;16.20;99.90
17815;DHT22;9031;50.974;11.330;2022-08-21T03:11:04;16.20;99.90
17815;DHT22;9031;50.974;11.330;2022-08-21T03:13:30;16.10;99.90
17815;DHT22;9031;50.974;11.330;2022-08-21T03:15:55;16.20;99.90
17815;DHT22;9031;50.974;11.330;2022-08-21T03:18:21;16.20;99.90
17815;DHT22;9031;50.974;11.330;2022-08-21T03:20:47;16.40;99.90
17815;DHT22;9031;50.974;11.330;2022-08-21T03:23:15;16.50;99.90
17815;DHT22;9031;50.974;11.330;2022-08-21T03:25:41;16.30;99.90
17815;DHT22;9031;50.974;11.330;2022-08-21T03:28:11;16.20;99.90
17815;DHT22;9031;50.974;11.330;2022-08-21T03:30:36;16.10;99.90
17815;DHT22;9031;50.974;11.330;2022-08-21T03:33:02;16.10;99.90
17815;DHT22;9031;50.974;11.330;2022-08-21T03:35:28;16.00;99.90
17815;DHT22;9031;50.974;11.330;2022-08-21T03:37:54;16.10;99.90
17815;DHT22;9031;50.974;11.330;2022-08-21T03:40:21;16.30;99.90
17815;DHT22;9031;50.974;11.330;2022-08-21T03:42:47;16.30;99.90
17815;DHT22;9031;50.974;11.330;2022-08-21T03:45:15;16.20;99.90
17815;DHT22;9031;50.974;11.330;2022-08-21T03:47:58;16.20;99.90
17815;DHT22;9031;50.974;11.330;2022-08-21T03:50:26;16.00;99.90
17815;DHT22;9031;50.974;11.330;2022-08-21T03:52:52;16.10;99.90
17815;DHT22;9031;50.974;11.330;2022-08-21T03:55:17;16.30;99.90
17815;DHT22;9031;50.974;11.330;2022-08-21T03:57:43;16.30;99.90
17815;DHT22;9031;50.974;11.330;2022-08-21T04:00:10;16.20;99.90
17815;DHT22;9031;50.974;11.330;2022-08-21T04:02:37;16.30;99.90
17815;DHT22;9031;50.974;11.330;2022-08-21T04:05:04;16.40;99.90
17815;DHT22;9031;50.974;11.330;2022-08-21T04:07:30;16.20;99.90
17815;DHT22;9031;50.974;11.330;2022-08-21T04:09:55;16.10;99.90
17815;DHT22;9031;50.974;11.330;2022-08-21T04:12:21;16.20;99.90
17815;DHT22;9031;50.974;11.330;2022-08-21T04:14:46;16.30;99.90
17815;DHT22;9031;50.974;11.330;2022-08-21T04:17:12;16.30;99.90
17815;DHT22;9031;50.974;11.330;2022-08-21T04:19:37;16.20;99.90
17815;DHT22;9031;50.974;11.330;2022-08-21T04:22:03;16.30;99.90
17815;DHT22;9031;50.974;11.330;2022-08-21T04:24:29;16.10;99.90
17815;DHT22;9031;50.974;11.330;2022-08-21T04:26:54;16.10;99.90
17815;DHT22;9031;50.974;11.330;2022-08-21T04:29:20;16.30;99.90
17815;DHT22;9031;50.974;11.330;2022-08-21T04:31:45;16.10;99.90
17815;DHT22;9031;50.974;11.330;2022-08-21T04:34:11;15.90;99.90
17815;DHT22;9031;50.974;11.330;2022-08-21T04:36:37;15.80;99.90
17815;DHT22;9031;50.974;11.330;2022-08-21T04:39:03;15.70;99.90
17815;DHT22;9031;50.974;11.330;2022-08-21T04:41:28;15.80;99.90
17815;DHT22;9031;50.974;11.330;2022-08-21T04:43:54;15.90;99.90
17815;DHT22;9031;50.974;11.330;2022-08-21T04:46:23;15.70;99.90
17815;DHT22;9031;50.974;11.330;2022-08-21T04:48:49;15.60;99.90
17815;DHT22;9031;50.974;11.330;2022-08-21T04:51:21;15.50;99.90
17815;DHT22;9031;50.974;11.330;2022-08-21T04:53:53;15.60;99.90
17815;DHT22;9031;50.974;11.330;2022-08-21T04:56:24;15.80;99.90
17815;DHT22;9031;50.974;11.330;2022-08-21T04:58:53;15.70;99.90
17815;DHT22;9031;50.974;11.330;2022-08-21T05:01:22;15.50;99.90
17815;DHT22;9031;50.974;11.330;2022-08-21T05:03:52;15.50;99.90
17815;DHT22;9031;50.974;11.330;2022-08-21T05:06:19;15.40;99.90
17815;DHT22;9031;50.974;11.330;2022-08-21T05:08:46;15.40;99.90
17815;DHT22;9031;50.974;11.330;2022-08-21T05:11:14;15.30;99.90
17815;DHT22;9031;50.974;11.330;2022-08-21T05:13:39;15.30;99.90
17815;DHT22;9031;50.974;11.330;2022-08-21T05:16:06;15.30;99.90
17815;DHT22;9031;50.974;11.330;2022-08-21T05:18:32;15.40;99.90
17815;DHT22;9031;50.974;11.330;2022-08-21T05:20:57;15.60;99.90
17815;DHT22;9031;50.974;11.330;2022-08-21T05:23:23;15.80;99.90
17815;DHT22;9031;50.974;11.330;2022-08-21T05:25:50;15.90;99.90
17815;DHT22;9031;50.974;11.330;2022-08-21T05:28:16;15.80;99.90
17815;DHT22;9031;50.974;11.330;2022-08-21T05:30:43;15.70;99.90
17815;DHT22;9031;50.974;11.330;2022-08-21T05:33:09;15.70;99.90
17815;DHT22;9031;50.974;11.330;2022-08-21T05:35:35;15.80;99.90
17815;DHT22;9031;50.974;11.330;2022-08-21T05:38:02;15.90;99.90
17815;DHT22;9031;50.974;11.330;2022-08-21T05:40:28;16.10;99.90
17815;DHT22;9031;50.974;11.330;2022-08-21T05:42:55;16.20;99.90
17815;DHT22;9031;50.974;11.330;2022-08-21T05:45:30;16.20;99.90
17815;DHT22;9031;50.974;11.330;2022-08-21T05:47:56;16.20;99.90
17815;DHT22;9031;50.974;11.330;2022-08-21T05:50:21;16.30;99.90
17815;DHT22;9031;50.974;11.330;2022-08-21T05:52:47;16.50;99.90
17815;DHT22;9031;50.974;11.330;2022-08-21T05:55:13;16.70;99.90
17815;DHT22;9031;50.974;11.330;2022-08-21T05:57:39;16.70;99.90
17815;DHT22;9031;50.974;11.330;2022-08-21T06:00:07;16.90;99.90
17815;DHT22;9031;50.974;11.330;2022-08-21T06:02:35;16.90;99.90
17815;DHT22;9031;50.974;11.330;2022-08-21T06:05:00;16.90;99.90
17815;DHT22;9031;50.974;11.330;2022-08-21T06:07:26;17.00;99.90
17815;DHT22;9031;50.974;11.330;2022-08-21T06:09:52;17.10;99.90
17815;DHT22;9031;50.974;11.330;2022-08-21T06:12:17;17.20;99.90
17815;DHT22;9031;50.974;11.330;2022-08-21T06:14:43;17.20;99.90
17815;DHT22;9031;50.974;11.330;2022-08-21T06:17:11;17.50;99.90
17815;DHT22;9031;50.974;11.330;2022-08-21T06:19:37;17.90;99.90
17815;DHT22;9031;50.974;11.330;2022-08-21T06:22:04;18.10;99.90
17815;DHT22;9031;50.974;11.330;2022-08-21T06:24:30;18.30;99.90
17815;DHT22;9031;50.974;11.330;2022-08-21T06:26:56;18.60;99.90
17815;DHT22;9031;50.974;11.330;2022-08-21T06:29:22;18.70;99.90
17815;DHT22;9031;50.974;11.330;2022-08-21T06:31:50;18.90;99.90
17815;DHT22;9031;50.974;11.330;2022-08-21T06:34:16;19.10;99.90
17815;DHT22;9031;50.974;11.330;2022-08-21T06:36:42;19.40;99.90
17815;DHT22;9031;50.974;11.330;2022-08-21T06:39:08;19.50;99.90
17815;DHT22;9031;50.974;11.330;2022-08-21T06:41:33;19.70;99.90
17815;DHT22;9031;50.974;11.330;2022-08-21T06:43:59;19.80;99.90
17815;DHT22;9031;50.974;11.330;2022-08-21T06:46:27;19.90;99.90
17815;DHT22;9031;50.974;11.330;2022-08-21T06:48:53;20.10;99.90
17815;DHT22;9031;50.974;11.330;2022-08-21T06:51:19;20.40;99.90
17815;DHT22;9031;50.974;11.330;2022-08-21T06:53:45;20.40;99.90
17815;DHT22;9031;50.974;11.330;2022-08-21T06:56:10;20.40;99.90
17815;DHT22;9031;50.974;11.330;2022-08-21T06:58:36;20.60;99.90
17815;DHT22;9031;50.974;11.330;2022-08-21T07:01:02;20.60;99.90
17815;DHT22;9031;50.974;11.330;2022-08-21T07:03:31;20.70;99.90
17815;DHT22;9031;50.974;11.330;2022-08-21T07:05:57;20.80;99.90
17815;DHT22;9031;50.974;11.330;2022-08-21T07:08:24;21.00;99.90
17815;DHT22;9031;50.974;11.330;2022-08-21T07:10:51;20.90;99.90
17815;DHT22;9031;50.974;11.330;2022-08-21T07:13:17;20.80;99.90
17815;DHT22;9031;50.974;11.330;2022-08-21T07:15:43;20.90;99.90
17815;DHT22;9031;50.974;11.330;2022-08-21T07:18:10;20.90;99.90
17815;DHT22;9031;50.974;11.330;2022-08-21T07:20:36;20.80;99.90
17815;DHT22;9031;50.974;11.330;2022-08-21T07:23:04;21.00;99.90
17815;DHT22;9031;50.974;11.330;2022-08-21T07:25:30;20.90;99.90
17815;DHT22;9031;50.974;11.330;2022-08-21T07:27:56;21.00;99.90
17815;DHT22;9031;50.974;11.330;2022-08-21T07:30:22;21.10;99.90
17815;DHT22;9031;50.974;11.330;2022-08-21T07:32:48;21.10;99.90
17815;DHT22;9031;50.974;11.330;2022-08-21T07:35:18;21.10;99.90
17815;DHT22;9031;50.974;11.330;2022-08-21T07:37:44;21.40;99.90
17815;DHT22;9031;50.974;11.330;2022-08-21T07:40:10;21.50;99.90
17815;DHT22;9031;50.974;11.330;2022-08-21T07:42:40;21.60;99.90
17815;DHT22;9031;50.974;11.330;2022-08-21T07:45:07;21.80;99.90
17815;DHT22;9031;50.974;11.330;2022-08-21T07:47:33;21.80;99.90
17815;DHT22;9031;50.974;11.330;2022-08-21T07:49:58;21.70;99.90
17815;DHT22;9031;50.974;11.330;2022-08-21T07:52:24;21.70;99.90
17815;DHT22;9031;50.974;11.330;2022-08-21T07:54:49;21.80;99.90
17815;DHT22;9031;50.974;11.330;2022-08-21T07:57:15;22.00;99.90
17815;DHT22;9031;50.974;11.330;2022-08-21T07:59:41;22.20;99.90
17815;DHT22;9031;50.974;11.330;2022-08-21T08:02:06;22.30;99.90
17815;DHT22;9031;50.974;11.330;2022-08-21T08:04:32;22.20;99.90
17815;DHT22;9031;50.974;11.330;2022-08-21T08:06:57;22.50;99.90
17815;DHT22;9031;50.974;11.330;2022-08-21T08:09:23;22.60;99.90
17815;DHT22;9031;50.974;11.330;2022-08-21T08:11:48;22.30;99.90
17815;DHT22;9031;50.974;11.330;2022-08-21T08:14:14;22.20;99.90
17815;DHT22;9031;50.974;11.330;2022-08-21T08:16:41;22.50;99.90
17815;DHT22;9031;50.974;11.330;2022-08-21T08:19:06;22.60;99.90
17815;DHT22;9031;50.974;11.330;2022-08-21T08:21:32;22.80;99.90
17815;DHT22;9031;50.974;11.330;2022-08-21T08:23:59;23.20;99.90
17815;DHT22;9031;50.974;11.330;2022-08-21T08:26:24;23.20;99.90
17815;DHT22;9031;50.974;11.330;2022-08-21T08:28:50;22.90;99.90
17815;DHT22;9031;50.974;11.330;2022-08-21T08:31:15;22.60;99.90
17815;DHT22;9031;50.974;11.330;2022-08-21T08:33:41;22.40;99.90
17815;DHT22;9031;50.974;11.330;2022-08-21T08:36:14;22.60;99.90
17815;DHT22;9031;50.974;11.330;2022-08-21T08:38:39;22.90;99.90
17815;DHT22;9031;50.974;11.330;2022-08-21T08:41:14;23.10;99.90
17815;DHT22;9031;50.974;11.330;2022-08-21T08:43:44;23.80;99.90
17815;DHT22;9031;50.974;11.330;2022-08-21T08:46:14;24.40;99.90
17815;DHT22;9031;50.974;11.330;2022-08-21T08:48:46;24.80;99.90
17815;DHT22;9031;50.974;11.330;2022-08-21T08:51:27;24.50;99.90
17815;DHT22;9031;50.974;11.330;2022-08-21T08:54:00;24.40;99.90
17815;DHT22;9031;50.974;11.330;2022-08-21T08:56:30;24.20;99.90
17815;DHT22;9031;50.974;11.330;2022-08-21T08:59:09;24.40;99.90
17815;DHT22;9031;50.974;11.330;2022-08-21T09:01:38;24.40;99.90
17815;DHT22;9031;50.974;11.330;2022-08-21T09:04:04;24.50;99.90
17815;DHT22;9031;50.974;11.330;2022-08-21T09:06:36;24.20;99.90
17815;DHT22;9031;50.974;11.330;2022-08-21T09:09:14;24.00;99.90
17815;DHT22;9031;50.974;11.330;2022-08-21T09:12:15;24.00;99.90
17815;DHT22;9031;50.974;11.330;2022-08-21T09:17:37;23.70;99.90
17815;DHT22;9031;50.974;11.330;2022-08-21T09:23:18;23.30;99.90
17815;DHT22;9031;50.974;11.330;2022-08-21T09:26:07;23.60;99.90
17815;DHT22;9031;50.974;11.330;2022-08-21T09:28:37;23.90;99.90
17815;DHT22;9031;50.974;11.330;2022-08-21T09:31:08;23.70;99.90
17815;DHT22;9031;50.974;11.330;2022-08-21T09:33:34;23.50;99.90
17815;DHT22;9031;50.974;11.330;2022-08-21T09:35:59;23.60;99.90
17815;DHT22;9031;50.974;11.330;2022-08-21T09:38:31;23.60;99.90
17815;DHT22;9031;50.974;11.330;2022-08-21T09:41:08;23.20;99.90
17815;DHT22;9031;50.974;11.330;2022-08-21T09:43:35;23.40;99.90
17815;DHT22;9031;50.974;11.330;2022-08-21T09:46:05;23.60;99.90
17815;DHT22;9031;50.974;11.330;2022-08-21T09:48:40;23.70;99.90
17815;DHT22;9031;50.974;11.330;2022-08-21T09:51:12;24.20;99.90
17815;DHT22;9031;50.974;11.330;2022-08-21T09:53:42;24.90;99.90
17815;DHT22;9031;50.974;11.330;2022-08-21T09:56:36;25.70;99.90
17815;DHT22;9031;50.974;11.330;2022-08-21T09:59:27;26.50;99.90
17815;DHT22;9031;50.974;11.330;2022-08-21T10:01:57;26.70;99.90
17815;DHT22;9031;50.974;11.330;2022-08-21T10:04:29;27.20;99.90
17815;DHT22;9031;50.974;11.330;2022-08-21T10:07:09;27.30;99.90
17815;DHT22;9031;50.974;11.330;2022-08-21T10:09:35;27.50;99.90
17815;DHT22;9031;50.974;11.330;2022-08-21T10:12:20;28.00;99.90
17815;DHT22;9031;50.974;11.330;2022-08-21T10:18:06;26.60;99.90
17815;DHT22;9031;50.974;11.330;2022-08-21T10:20:42;25.90;99.90
17815;DHT22;9031;50.974;11.330;2022-08-21T10:23:45;25.70;99.90
17815;DHT22;9031;50.974;11.330;2022-08-21T10:29:24;26.80;99.90
17815;DHT22;9031;50.974;11.330;2022-08-21T10:32:08;27.20;99.90
17815;DHT22;9031;50.974;11.330;2022-08-21T10:40:20;28.20;99.90
17815;DHT22;9031;50.974;11.330;2022-08-21T10:43:02;28.50;99.90
17815;DHT22;9031;50.974;11.330;2022-08-21T10:45:50;28.20;99.90
17815;DHT22;9031;50.974;11.330;2022-08-21T10:48:29;27.80;99.90
17815;DHT22;9031;50.974;11.330;2022-08-21T10:51:10;27.70;99.90
17815;DHT22;9031;50.974;11.330;2022-08-21T10:56:29;29.00;99.90
17815;DHT22;9031;50.974;11.330;2022-08-21T11:01:54;28.30;99.90
17815;DHT22;9031;50.974;11.330;2022-08-21T11:07:18;27.70;99.90
17815;DHT22;9031;50.974;11.330;2022-08-21T11:09:47;27.40;99.90
17815;DHT22;9031;50.974;11.330;2022-08-21T11:15:27;26.70;99.90
17815;DHT22;9031;50.974;11.330;2022-08-21T11:18:04;26.50;99.90
17815;DHT22;9031;50.974;11.330;2022-08-21T11:20:42;27.50;99.90
17815;DHT22;9031;50.974;11.330;2022-08-21T11:23:17;29.10;99.90
17815;DHT22;9031;50.974;11.330;2022-08-21T11:25:55;30.80;99.90
17815;DHT22;9031;50.974;11.330;2022-08-21T11:28:28;31.40;99.90
17815;DHT22;9031;50.974;11.330;2022-08-21T11:31:24;29.60;99.90
17815;DHT22;9031;50.974;11.330;2022-08-21T11:39:41;31.40;99.90
17815;DHT22;9031;50.974;11.330;2022-08-21T11:42:25;32.30;99.90
17815;DHT22;9031;50.974;11.330;2022-08-21T11:50:14;31.70;99.90
17815;DHT22;9031;50.974;11.330;2022-08-21T11:53:02;32.00;99.90
17815;DHT22;9031;50.974;11.330;2022-08-21T11:55:47;33.20;99.90
17815;DHT22;9031;50.974;11.330;2022-08-21T11:58:24;33.90;99.90
17815;DHT22;9031;50.974;11.330;2022-08-21T12:00:56;33.20;99.90
17815;DHT22;9031;50.974;11.330;2022-08-21T12:04:15;33.10;99.90
17815;DHT22;9031;50.974;11.330;2022-08-21T12:06:31;34.20;99.90
17815;DHT22;9031;50.974;11.330;2022-08-21T12:09:05;34.40;99.90
17815;DHT22;9031;50.974;11.330;2022-08-21T12:11:32;34.50;99.90
17815;DHT22;9031;50.974;11.330;2022-08-21T12:16:38;32.80;99.90
17815;DHT22;9031;50.974;11.330;2022-08-21T12:19:13;32.20;99.90
17815;DHT22;9031;50.974;11.330;2022-08-21T12:21:50;33.10;99.90
17815;DHT22;9031;50.974;11.330;2022-08-21T12:24:18;33.90;99.90
17815;DHT22;9031;50.974;11.330;2022-08-21T12:26:53;33.70;99.90
17815;DHT22;9031;50.974;11.330;2022-08-21T12:29:33;33.50;99.90
17815;DHT22;9031;50.974;11.330;2022-08-21T12:32:04;34.30;99.90
17815;DHT22;9031;50.974;11.330;2022-08-21T12:35:00;35.10;99.40
17815;DHT22;9031;50.974;11.330;2022-08-21T12:37:39;36.30;97.60
17815;DHT22;9031;50.974;11.330;2022-08-21T12:40:59;36.60;96.80
17815;DHT22;9031;50.974;11.330;2022-08-21T12:43:21;36.20;95.30
17815;DHT22;9031;50.974;11.330;2022-08-21T12:45:50;33.80;97.10
17815;DHT22;9031;50.974;11.330;2022-08-21T12:48:45;32.00;98.60
17815;DHT22;9031;50.974;11.330;2022-08-21T12:51:17;31.40;99.30
17815;DHT22;9031;50.974;11.330;2022-08-21T12:56:17;31.80;99.60
17815;DHT22;9031;50.974;11.330;2022-08-21T12:58:48;33.30;98.60
17815;DHT22;9031;50.974;11.330;2022-08-21T13:01:17;33.90;97.30
17815;DHT22;9031;50.974;11.330;2022-08-21T13:03:44;33.20;98.20
17815;DHT22;9031;50.974;11.330;2022-08-21T13:06:16;34.00;97.60
17815;DHT22;9031;50.974;11.330;2022-08-21T13:08:43;33.90;97.00
17815;DHT22;9031;50.974;11.330;2022-08-21T13:11:10;32.10;98.60
17815;DHT22;9031;50.974;11.330;2022-08-21T13:13:38;31.30;99.70
17815;DHT22;9031;50.974;11.330;2022-08-21T13:16:06;30.30;99.90
17815;DHT22;9031;50.974;11.330;2022-08-21T13:18:34;30.10;99.90
17815;DHT22;9031;50.974;11.330;2022-08-21T13:21:12;32.10;99.10
17815;DHT22;9031;50.974;11.330;2022-08-21T13:23:39;33.50;97.70
17815;DHT22;9031;50.974;11.330;2022-08-21T13:26:21;34.10;97.20
17815;DHT22;9031;50.974;11.330;2022-08-21T13:28:48;35.30;96.00
17815;DHT22;9031;50.974;11.330;2022-08-21T13:31:27;34.80;95.60
17815;DHT22;9031;50.974;11.330;2022-08-21T13:33:55;34.40;95.20
17815;DHT22;9031;50.974;11.330;2022-08-21T13:36:26;35.70;95.10
17815;DHT22;9031;50.974;11.330;2022-08-21T13:38:54;36.90;94.10
17815;DHT22;9031;50.974;11.330;2022-08-21T13:41:29;37.40;93.30
17815;DHT22;9031;50.974;11.330;2022-08-21T13:44:00;35.30;94.20
17815;DHT22;9031;50.974;11.330;2022-08-21T13:46:31;34.70;95.10
17815;DHT22;9031;50.974;11.330;2022-08-21T13:48:59;35.90;93.70
17815;DHT22;9031;50.974;11.330;2022-08-21T13:51:26;34.90;93.90
17815;DHT22;9031;50.974;11.330;2022-08-21T13:53:53;34.20;94.70
17815;DHT22;9031;50.974;11.330;2022-08-21T13:56:31;34.00;94.30
17815;DHT22;9031;50.974;11.330;2022-08-21T13:58:59;32.20;95.80
17815;DHT22;9031;50.974;11.330;2022-08-21T14:01:38;30.40;97.40
17815;DHT22;9031;50.974;11.330;2022-08-21T14:04:33;29.90;98.70
17815;DHT22;9031;50.974;11.330;2022-08-21T14:07:00;31.70;97.40
17815;DHT22;9031;50.974;11.330;2022-08-21T14:09:39;32.80;95.50
17815;DHT22;9031;50.974;11.330;2022-08-21T14:12:16;31.90;95.90
17815;DHT22;9031;50.974;11.330;2022-08-21T14:14:43;31.80;96.60
17815;DHT22;9031;50.974;11.330;2022-08-21T14:17:13;31.00;97.30
17815;DHT22;9031;50.974;11.330;2022-08-21T14:22:30;30.10;98.20
17815;DHT22;9031;50.974;11.330;2022-08-21T14:25:05;30.10;98.80
17815;DHT22;9031;50.974;11.330;2022-08-21T14:27:32;31.50;97.50
17815;DHT22;9031;50.974;11.330;2022-08-21T14:30:01;33.10;95.90
17815;DHT22;9031;50.974;11.330;2022-08-21T14:32:29;34.50;94.70
17815;DHT22;9031;50.974;11.330;2022-08-21T14:34:57;34.90;93.60
17815;DHT22;9031;50.974;11.330;2022-08-21T14:37:23;35.20;93.50
17815;DHT22;9031;50.974;11.330;2022-08-21T14:39:49;34.80;93.50
17815;DHT22;9031;50.974;11.330;2022-08-21T14:42:15;33.20;94.80
17815;DHT22;9031;50.974;11.330;2022-08-21T14:44:41;32.70;96.30
17815;DHT22;9031;50.974;11.330;2022-08-21T14:47:08;33.20;95.00
17815;DHT22;9031;50.974;11.330;2022-08-21T14:49:34;33.10;94.90
17815;DHT22;9031;50.974;11.330;2022-08-21T14:52:00;33.90;94.60
17815;DHT22;9031;50.974;11.330;2022-08-21T14:54:27;34.40;94.10
17815;DHT22;9031;50.974;11.330;2022-08-21T14:56:53;34.90;93.40
17815;DHT22;9031;50.974;11.330;2022-08-21T14:59:20;35.30;93.60
17815;DHT22;9031;50.974;11.330;2022-08-21T15:01:46;35.50;92.40
17815;DHT22;9031;50.974;11.330;2022-08-21T15:04:12;36.60;92.40
17815;DHT22;9031;50.974;11.330;2022-08-21T15:06:37;37.00;91.60
17815;DHT22;9031;50.974;11.330;2022-08-21T15:09:03;36.50;90.50
17815;DHT22;9031;50.974;11.330;2022-08-21T15:11:32;36.00;90.40
17815;DHT22;9031;50.974;11.330;2022-08-21T15:14:01;34.60;90.90
17815;DHT22;9031;50.974;11.330;2022-08-21T15:16:28;33.30;92.10
17815;DHT22;9031;50.974;11.330;2022-08-21T15:18:55;32.00;93.60
17815;DHT22;9031;50.974;11.330;2022-08-21T15:21:21;31.50;93.80
17815;DHT22;9031;50.974;11.330;2022-08-21T15:23:46;31.70;93.70
17815;DHT22;9031;50.974;11.330;2022-08-21T15:26:12;32.80;93.60
17815;DHT22;9031;50.974;11.330;2022-08-21T15:28:38;34.30;92.00
17815;DHT22;9031;50.974;11.330;2022-08-21T15:31:04;34.40;91.50
17815;DHT22;9031;50.974;11.330;2022-08-21T15:33:30;35.10;90.70
17815;DHT22;9031;50.974;11.330;2022-08-21T15:35:56;34.20;91.20
17815;DHT22;9031;50.974;11.330;2022-08-21T15:38:22;32.60;92.90
17815;DHT22;9031;50.974;11.330;2022-08-21T15:40:48;31.10;94.60
17815;DHT22;9031;50.974;11.330;2022-08-21T15:43:42;29.80;95.50
17815;DHT22;9031;50.974;11.330;2022-08-21T15:46:10;30.30;95.80
17815;DHT22;9031;50.974;11.330;2022-08-21T15:48:37;32.20;94.50
17815;DHT22;9031;50.974;11.330;2022-08-21T15:51:02;33.40;93.30
17815;DHT22;9031;50.974;11.330;2022-08-21T15:53:28;34.50;92.10
17815;DHT22;9031;50.974;11.330;2022-08-21T15:55:53;35.00;91.40
17815;DHT22;9031;50.974;11.330;2022-08-21T15:58:19;35.60;91.10
17815;DHT22;9031;50.974;11.330;2022-08-21T16:00:46;34.70;90.80
17815;DHT22;9031;50.974;11.330;2022-08-21T16:03:15;33.90;91.70
17815;DHT22;9031;50.974;11.330;2022-08-21T16:05:43;33.80;91.10
17815;DHT22;9031;50.974;11.330;2022-08-21T16:08:08;35.10;90.60
17815;DHT22;9031;50.974;11.330;2022-08-21T16:10:36;35.40;90.50
17815;DHT22;9031;50.974;11.330;2022-08-21T16:13:05;36.20;89.80
17815;DHT22;9031;50.974;11.330;2022-08-21T16:15:31;36.30;88.50
17815;DHT22;9031;50.974;11.330;2022-08-21T16:17:57;36.00;89.50
17815;DHT22;9031;50.974;11.330;2022-08-21T16:20:26;35.60;88.50
17815;DHT22;9031;50.974;11.330;2022-08-21T16:22:53;35.20;90.10
17815;DHT22;9031;50.974;11.330;2022-08-21T16:25:19;35.90;88.70
17815;DHT22;9031;50.974;11.330;2022-08-21T16:27:48;36.70;87.50
17815;DHT22;9031;50.974;11.330;2022-08-21T16:30:17;36.40;87.80
17815;DHT22;9031;50.974;11.330;2022-08-21T16:32:43;36.70;88.50